Time;durP1;ratioP1;P1;durP2;ratioP2;P2;SDS_P1;SDS_P2;PMS_P1;PMS_P2;Temp;Humidity;BMP_temperature;BMP_pressure;BME280_temperature;BME280_humidity;BME280_pressure;Samples;Min_cycle;Max_cycle;Signal;HPM_P1;HPM_P2
2022/06/03 00:00:03;;;;;;;10.02;6.55;;;13.70;80.60;;;;;;5113061;28;20551;-52
2022/06/03 00:02:32;;;;;;;9.05;6.50;;;13.60;80.80;;;;;;5112582;28;20027;-61
2022/06/03 00:05:19;;;;;;;8.50;5.47;;;13.60;81.00;;;;;;5113253;28;20030;-41
2022/06/03 00:07:54;;;;;;;8.48;5.43;;;13.60;81.40;;;;;;5112911;28;20114;-51
2022/06/03 00:10:28;;;;;;;8.68;5.95;;;13.60;81.80;;;;;;5113219;28;20051;-42
2022/06/03 00:13:16;;;;;;;8.50;5.80;;;13.50;81.80;;;;;;5112955;28;20545;-55
2022/06/03 00:15:52;;;;;;;10.90;6.15;;;13.50;81.70;;;;;;5112956;28;20062;-49
2022/06/03 00:18:49;;;;;;;7.43;5.95;;;13.40;81.80;;;;;;5098670;28;20032;-50
2022/06/03 00:21:47;;;;;;;9.32;6.32;;;13.30;82.60;;;;;;5112807;28;20077;-56
2022/06/03 00:24:37;;;;;;;9.10;6.78;;;13.30;82.80;;;;;;5052432;28;20030;-60
2022/06/03 00:27:47;;;;;;;10.02;6.03;;;13.30;82.60;;;;;;5098783;28;20061;-60
2022/06/03 00:30:34;;;;;;;9.15;5.97;;;13.30;83.10;;;;;;5082893;28;20028;-56
2022/06/03 00:33:30;;;;;;;8.75;6.18;;;13.30;83.00;;;;;;5089294;28;20030;-57
2022/06/03 00:36:04;;;;;;;10.00;6.32;;;13.20;82.90;;;;;;5112461;28;20108;-58
2022/06/03 00:38:49;;;;;;;8.68;5.68;;;13.20;83.00;;;;;;5112124;28;20031;-60
2022/06/03 00:41:40;;;;;;;10.88;6.03;;;13.20;83.40;;;;;;5112458;28;20015;-63
2022/06/03 00:44:08;;;;;;;10.32;6.35;;;13.20;83.50;;;;;;5112798;28;20400;-57
2022/06/03 00:46:45;;;;;;;12.00;6.50;;;13.10;83.80;;;;;;5107738;28;20054;-62
2022/06/03 00:49:32;;;;;;;14.85;6.28;;;13.00;83.80;;;;;;5112287;28;20023;-59
2022/06/03 00:52:00;;;;;;;8.60;5.47;;;13.00;84.60;;;;;;5112146;28;20070;-59
2022/06/03 00:54:52;;;;;;;7.97;6.15;;;13.00;84.90;;;;;;5112055;28;20068;-53
2022/06/03 00:57:54;;;;;;;7.70;4.93;;;13.00;85.30;;;;;;5065520;28;20075;-56
2022/06/03 01:00:22;;;;;;;8.85;5.60;;;12.90;85.10;;;;;;5111909;28;20024;-59
2022/06/03 01:03:06;;;;;;;9.13;5.20;;;12.90;85.00;;;;;;5112268;28;20067;-60
2022/06/03 01:05:51;;;;;;;8.93;5.60;;;12.90;85.90;;;;;;5111964;28;20570;-60
2022/06/03 01:08:49;;;;;;;7.72;5.30;;;12.80;86.00;;;;;;5111948;28;20028;-58
2022/06/03 01:11:17;;;;;;;5.97;4.85;;;12.80;86.20;;;;;;5055849;28;20077;-58
2022/06/03 01:14:00;;;;;;;6.75;4.68;;;12.80;87.10;;;;;;5090938;28;20060;-59
2022/06/03 01:16:33;;;;;;;8.70;4.97;;;12.70;87.00;;;;;;5096166;28;20388;-58
2022/06/03 01:19:31;;;;;;;7.82;5.53;;;12.70;86.70;;;;;;5095888;28;20043;-62
2022/06/03 01:22:24;;;;;;;9.77;5.18;;;12.70;86.40;;;;;;5091384;28;20047;-61
2022/06/03 01:25:29;;;;;;;7.53;5.03;;;12.70;87.00;;;;;;5091960;28;20024;-59
2022/06/03 01:28:09;;;;;;;6.47;4.55;;;12.70;86.50;;;;;;5091110;28;20108;-61
2022/06/03 01:30:57;;;;;;;9.32;5.32;;;12.70;86.90;;;;;;5091181;28;20020;-58
2022/06/03 01:34:16;;;;;;;10.10;5.28;;;12.70;86.50;;;;;;5109693;28;20039;-61
2022/06/03 01:36:44;;;;;;;7.15;4.95;;;12.70;87.00;;;;;;5008844;28;20046;-64
2022/06/03 01:39:10;;;;;;;8.50;5.05;;;12.70;86.80;;;;;;5085751;28;20055;-52
2022/06/03 01:42:13;;;;;;;7.53;5.20;;;12.80;86.80;;;;;;5110698;28;20582;-59
2022/06/03 01:45:09;;;;;;;7.95;4.93;;;12.80;86.50;;;;;;5111449;28;20024;-61
2022/06/03 01:47:43;;;;;;;10.10;5.50;;;12.80;86.50;;;;;;5104492;28;20026;-60
2022/06/03 01:50:21;;;;;;;9.15;5.47;;;12.80;86.90;;;;;;5111330;28;20031;-59
2022/06/03 01:53:14;;;;;;;11.10;5.93;;;12.80;86.30;;;;;;5111445;28;20059;-58
2022/06/03 01:56:17;;;;;;;10.35;5.13;;;12.80;87.10;;;;;;5111088;28;20040;-59
2022/06/03 01:59:20;;;;;;;8.50;4.88;;;12.70;86.90;;;;;;5111068;28;20028;-53
2022/06/03 02:02:23;;;;;;;12.45;4.63;;;12.80;87.50;;;;;;5111325;28;20023;-60
2022/06/03 02:04:55;;;;;;;8.30;5.25;;;12.70;87.50;;;;;;5102239;28;20023;-57
2022/06/03 02:07:37;;;;;;;7.45;4.68;;;12.70;86.90;;;;;;5111275;28;20072;-53
2022/06/03 02:10:17;;;;;;;10.23;5.30;;;12.70;87.20;;;;;;5111154;28;20081;-43
2022/06/03 02:13:10;;;;;;;9.02;4.80;;;12.70;87.50;;;;;;5096818;28;20105;-58
2022/06/03 02:15:44;;;;;;;6.93;4.70;;;12.70;87.30;;;;;;5111121;28;20024;-57
2022/06/03 02:18:39;;;;;;;9.90;4.80;;;12.70;87.90;;;;;;5097961;28;20039;-46
2022/06/03 02:21:36;;;;;;;9.05;4.90;;;12.60;87.40;;;;;;5111108;28;20072;-50
2022/06/03 02:24:25;;;;;;;6.45;4.65;;;12.60;88.20;;;;;;5080784;28;20411;-43
2022/06/03 02:26:57;;;;;;;10.20;4.63;;;12.60;88.00;;;;;;5113855;28;20027;-43
2022/06/03 02:33:16;;;;;;;10.75;5.00;;;12.60;88.80;;;;;;5106210;28;20058;-42
2022/06/03 02:35:52;;;;;;;8.75;4.72;;;12.50;88.20;;;;;;5112685;28;20168;-42
2022/06/03 02:38:28;;;;;;;8.05;4.40;;;12.50;88.80;;;;;;5111452;28;20051;-42
2022/06/03 02:41:50;;;;;;;10.55;5.18;;;12.50;88.90;;;;;;5114832;28;20427;-43
2022/06/03 02:44:27;;;;;;;7.80;4.60;;;12.50;88.80;;;;;;5011871;28;20098;-48
2022/06/03 02:47:11;;;;;;;7.45;4.00;;;12.50;89.20;;;;;;5011573;28;20514;-52
2022/06/03 02:50:14;;;;;;;10.07;5.18;;;12.50;89.60;;;;;;5075673;28;20028;-43
2022/06/03 02:52:55;;;;;;;9.00;4.85;;;12.50;89.40;;;;;;5105814;28;20016;-51
2022/06/03 02:55:27;;;;;;;10.55;4.78;;;12.40;89.90;;;;;;5114145;28;20065;-57
2022/06/03 02:58:11;;;;;;;9.93;4.65;;;12.40;89.90;;;;;;5108078;28;20082;-53
2022/06/03 03:01:01;;;;;;;9.43;4.53;;;12.40;90.10;;;;;;5114517;28;20511;-54
2022/06/03 03:03:46;;;;;;;9.93;5.47;;;12.40;90.00;;;;;;5109324;28;20093;-56
2022/06/03 03:06:41;;;;;;;10.13;5.00;;;12.30;90.30;;;;;;5099868;28;20035;-60
2022/06/03 03:09:32;;;;;;;8.98;5.13;;;12.30;90.40;;;;;;5104927;28;20019;-52
2022/06/03 03:12:10;;;;;;;8.77;4.97;;;12.30;90.40;;;;;;5112347;28;20040;-57
2022/06/03 03:14:59;;;;;;;9.35;4.95;;;12.30;90.40;;;;;;5108005;28;20069;-59
2022/06/03 03:17:51;;;;;;;9.88;5.00;;;12.30;90.50;;;;;;5095774;28;20054;-58
2022/06/03 03:20:53;;;;;;;14.70;4.53;;;12.30;90.60;;;;;;5112664;28;20050;-52
2022/06/03 03:23:31;;;;;;;10.80;5.25;;;12.30;90.60;;;;;;5112535;28;20020;-57
2022/06/03 03:26:18;;;;;;;15.95;5.10;;;12.30;90.50;;;;;;5113857;28;20046;-58
2022/06/03 03:28:46;;;;;;;10.18;4.82;;;12.30;90.70;;;;;;5110888;28;20036;-55
2022/06/03 03:31:33;;;;;;;11.23;5.70;;;12.30;90.80;;;;;;5113795;28;20020;-60
2022/06/03 03:34:40;;;;;;;10.77;5.03;;;12.30;90.80;;;;;;5106187;28;20059;-52
2022/06/03 03:37:08;;;;;;;8.82;4.90;;;12.30;91.00;;;;;;5051418;28;20059;-58
2022/06/03 03:39:37;;;;;;;9.93;5.38;;;12.20;91.00;;;;;;5113193;28;20530;-62
2022/06/03 03:42:27;;;;;;;10.15;5.45;;;12.20;91.10;;;;;;5109326;28;20506;-59
2022/06/03 03:45:32;;;;;;;9.98;4.88;;;12.20;91.10;;;;;;5111628;28;20042;-61
2022/06/03 03:47:57;;;;;;;9.05;5.15;;;12.20;91.30;;;;;;5071878;28;20066;-47
2022/06/03 03:50:41;;;;;;;10.93;5.40;;;12.20;91.30;;;;;;5105069;28;20056;-60
2022/06/03 03:53:19;;;;;;;11.20;5.30;;;12.10;91.30;;;;;;5102583;28;20032;-60
2022/06/03 03:56:22;;;;;;;10.73;5.75;;;12.20;91.40;;;;;;5092842;28;20035;-57
2022/06/03 03:59:07;;;;;;;10.18;5.22;;;12.20;91.60;;;;;;5111277;28;20400;-57
2022/06/03 04:01:57;;;;;;;12.60;6.10;;;12.20;91.60;;;;;;5100117;28;20066;-53
2022/06/03 04:05:02;;;;;;;13.43;5.85;;;12.20;91.60;;;;;;5108985;28;20480;-61
2022/06/03 04:07:46;;;;;;;11.63;5.72;;;12.20;91.50;;;;;;5110328;28;20031;-50
2022/06/03 04:11:01;;;;;;;10.68;6.25;;;12.20;91.60;;;;;;5101113;28;20051;-55
2022/06/03 04:13:54;;;;;;;13.95;6.50;;;12.30;91.70;;;;;;5108315;28;20020;-58
2022/06/03 04:16:52;;;;;;;12.18;6.18;;;12.30;91.80;;;;;;5113000;28;20449;-48
2022/06/03 04:19:38;;;;;;;9.80;6.00;;;12.30;91.90;;;;;;5060996;28;20074;-50
2022/06/03 04:22:31;;;;;;;13.55;6.35;;;12.30;91.80;;;;;;5100356;28;20034;-44
2022/06/03 04:25:11;;;;;;;15.30;6.90;;;12.40;91.50;;;;;;5112816;28;20016;-59
2022/06/03 04:27:55;;;;;;;;;;;12.50;91.70;;;;;;5113359;28;20161;-61
2022/06/03 04:30:51;;;;;;;11.35;6.90;;;12.50;91.80;;;;;;5098216;28;19909;-57
2022/06/03 04:33:50;;;;;;;9.43;7.10;;;12.60;91.90;;;;;;5112373;28;20038;-52
2022/06/03 04:36:32;;;;;;;12.07;6.57;;;12.60;91.20;;;;;;5112564;28;20031;-61
2022/06/03 04:39:07;;;;;;;11.43;6.45;;;12.70;91.60;;;;;;5099218;28;20134;-59
2022/06/03 04:41:51;;;;;;;17.15;7.60;;;12.70;91.10;;;;;;5112617;28;20044;-57
2022/06/03 04:44:44;;;;;;;13.00;7.38;;;12.80;91.20;;;;;;5112489;28;20388;-60
2022/06/03 04:47:44;;;;;;;15.05;7.50;;;12.80;91.00;;;;;;5110272;28;20034;-55
2022/06/03 04:50:28;;;;;;;11.82;7.68;;;12.90;90.70;;;;;;5107301;28;20053;-56
2022/06/03 04:53:30;;;;;;;15.00;8.75;;;12.90;90.70;;;;;;5112405;28;20119;-55
2022/06/03 04:56:11;;;;;;;16.40;8.13;;;12.90;90.70;;;;;;5095721;28;20075;-62
2022/06/03 04:59:07;;;;;;;13.88;7.35;;;13.00;90.90;;;;;;5102950;28;20028;-45
2022/06/03 05:02:11;;;;;;;12.20;7.25;;;13.10;90.80;;;;;;5098654;28;20015;-56
2022/06/03 05:05:16;;;;;;;13.45;7.53;;;13.20;91.00;;;;;;5024115;28;20060;-57
2022/06/03 05:08:19;;;;;;;15.15;8.52;;;13.30;90.80;;;;;;5107474;28;20028;-63
2022/06/03 05:10:59;;;;;;;15.43;7.78;;;13.40;90.50;;;;;;5111791;28;20024;-58
2022/06/03 05:14:02;;;;;;;14.45;8.20;;;13.40;90.10;;;;;;5098407;28;20027;-57
2022/06/03 05:17:02;;;;;;;12.82;7.85;;;13.50;90.10;;;;;;5111592;28;20019;-60
2022/06/03 05:19:30;;;;;;;11.13;7.47;;;13.70;89.70;;;;;;5111766;28;20061;-47
2022/06/03 05:22:10;;;;;;;14.77;7.95;;;13.80;89.70;;;;;;5111750;28;20097;-61
2022/06/03 05:24:56;;;;;;;14.98;7.93;;;13.90;88.60;;;;;;5111408;28;20464;-54
2022/06/03 05:27:39;;;;;;;16.02;7.40;;;14.00;88.20;;;;;;5111811;28;20112;-57
2022/06/03 05:30:14;;;;;;;12.45;6.90;;;14.00;88.10;;;;;;5111533;28;20027;-50
2022/06/03 05:33:03;;;;;;;16.00;7.65;;;14.10;88.60;;;;;;5111525;28;20475;-45
2022/06/03 05:35:47;;;;;;;16.33;7.90;;;14.20;88.00;;;;;;5110940;28;20170;-43
2022/06/03 05:38:37;;;;;;;13.02;7.13;;;14.20;86.60;;;;;;5111274;28;20065;-49
2022/06/03 05:41:05;;;;;;;11.05;6.68;;;14.20;87.80;;;;;;5111388;28;20185;-58
2022/06/03 05:43:42;;;;;;;17.38;6.88;;;14.40;87.00;;;;;;5109844;28;20028;-60
2022/06/03 05:46:30;;;;;;;11.38;7.07;;;14.60;86.30;;;;;;5111270;28;20436;-57
2022/06/03 05:49:09;;;;;;;11.02;6.90;;;15.00;84.50;;;;;;5111146;28;20503;-49
2022/06/03 05:52:01;;;;;;;9.13;5.70;;;15.80;83.60;;;;;;5100904;28;20118;-55
2022/06/03 05:54:30;;;;;;;11.20;5.40;;;16.70;80.10;;;;;;5090749;28;20132;-53
2022/06/03 05:57:17;;;;;;;12.35;6.60;;;17.40;75.00;;;;;;5096924;28;20104;-57
2022/06/03 05:59:57;;;;;;;9.45;6.07;;;17.30;72.50;;;;;;5100483;28;20027;-49
2022/06/03 06:02:34;;;;;;;10.85;6.20;;;16.80;74.60;;;;;;5111016;28;20488;-61
2022/06/03 06:05:17;;;;;;;12.80;6.15;;;16.80;75.90;;;;;;5092871;28;20377;-57
2022/06/03 06:07:48;;;;;;;9.75;5.63;;;17.60;74.50;;;;;;5111039;28;20156;-60
2022/06/03 06:10:39;;;;;;;9.35;6.00;;;18.30;71.80;;;;;;5101582;28;20015;-57
2022/06/03 06:13:21;;;;;;;9.80;5.55;;;18.50;71.00;;;;;;5100422;28;20036;-56
2022/06/03 06:16:17;;;;;;;10.23;5.05;;;18.50;70.40;;;;;;5111269;28;20068;-56
2022/06/03 06:19:12;;;;;;;9.57;5.50;;;18.30;71.50;;;;;;5098914;28;20127;-49
2022/06/03 06:21:59;;;;;;;10.48;5.28;;;18.30;72.30;;;;;;5111034;28;20028;-54
2022/06/03 06:24:57;;;;;;;14.57;5.20;;;18.90;75.10;;;;;;5111145;28;20028;-60
2022/06/03 06:27:44;;;;;;;8.30;4.87;;;19.90;69.20;;;;;;5103918;28;20496;-58
2022/06/03 06:30:46;;;;;;;9.02;4.85;;;21.10;65.30;;;;;;5109483;28;20308;-55
2022/06/03 06:33:21;;;;;;;12.02;5.07;;;22.20;60.00;;;;;;5110796;28;20020;-53
2022/06/03 06:36:17;;;;;;;8.50;4.53;;;22.70;58.90;;;;;;5110826;28;20499;-48
2022/06/03 06:38:52;;;;;;;8.73;4.68;;;23.10;59.90;;;;;;5110444;28;20031;-50
2022/06/03 06:41:24;;;;;;;7.45;5.30;;;23.70;60.40;;;;;;5108942;28;20472;-51
2022/06/03 06:44:09;;;;;;;9.80;5.28;;;24.40;55.40;;;;;;5097602;28;20510;-59
2022/06/03 06:46:57;;;;;;;9.75;5.28;;;24.50;51.50;;;;;;5100384;28;20034;-59
2022/06/03 06:49:25;;;;;;;10.90;6.18;;;24.30;50.40;;;;;;5100959;28;20024;-57
2022/06/03 06:52:09;;;;;;;7.78;4.93;;;24.90;48.80;;;;;;5110024;28;20016;-59
2022/06/03 06:55:15;;;;;;;10.60;5.05;;;25.10;50.00;;;;;;5110714;28;20065;-57
2022/06/03 06:57:55;;;;;;;11.00;5.22;;;25.60;48.20;;;;;;5088258;28;20130;-56
2022/06/03 07:00:30;;;;;;;9.48;5.05;;;25.90;47.60;;;;;;5090887;28;20020;-61
2022/06/03 07:03:03;;;;;;;10.20;4.95;;;25.90;47.50;;;;;;5098104;28;20469;-52
2022/06/03 07:05:53;;;;;;;8.15;4.22;;;26.50;50.60;;;;;;5092584;28;20117;-59
2022/06/03 07:08:24;;;;;;;8.63;4.80;;;27.10;45.60;;;;;;5093805;28;20020;-60
2022/06/03 07:11:12;;;;;;;8.23;4.75;;;27.60;46.60;;;;;;5089963;28;20012;-56
2022/06/03 07:13:46;;;;;;;8.98;4.30;;;28.00;44.60;;;;;;5092513;28;20036;-59
2022/06/03 07:22:31;;;;;;;8.93;4.57;;;28.00;45.70;;;;;;5093599;28;20039;-59
2022/06/03 07:25:07;;;;;;;8.85;4.45;;;28.20;43.90;;;;;;5095688;28;20012;-61
2022/06/03 07:28:03;;;;;;;8.63;4.00;;;28.80;45.80;;;;;;5093587;28;20085;-53
2022/06/03 07:30:49;;;;;;;7.90;4.30;;;29.50;43.80;;;;;;5094115;28;20024;-59
2022/06/03 07:33:21;;;;;;;5.68;3.72;;;30.20;41.00;;;;;;5093125;28;20578;-61
2022/06/03 07:36:21;;;;;;;7.80;4.10;;;30.80;41.80;;;;;;5095293;28;20028;-52
2022/06/03 07:39:13;;;;;;;8.55;4.10;;;31.80;40.60;;;;;;5102232;28;20032;-59
2022/06/03 07:41:46;;;;;;;6.65;3.42;;;31.80;37.30;;;;;;5080716;28;20490;-58
2022/06/03 07:44:38;;;;;;;6.45;3.45;;;31.60;36.20;;;;;;5098807;28;20486;-56
2022/06/03 07:47:07;;;;;;;8.27;3.72;;;31.90;39.70;;;;;;5095525;28;20028;-54
2022/06/03 07:49:36;;;;;;;7.85;3.25;;;31.70;38.90;;;;;;5093163;28;20073;-60
2022/06/03 07:52:46;;;;;;;6.90;3.58;;;31.70;39.90;;;;;;5092972;28;20365;-60
2022/06/03 07:55:20;;;;;;;7.38;3.30;;;32.30;39.70;;;;;;5079676;28;20039;-55
2022/06/03 07:57:52;;;;;;;8.02;3.40;;;33.30;38.30;;;;;;5096894;28;20446;-60
2022/06/03 08:00:20;;;;;;;6.30;3.40;;;33.60;35.00;;;;;;5110793;28;20066;-59
2022/06/03 08:02:46;;;;;;;6.07;3.22;;;33.40;36.40;;;;;;5093025;28;20103;-60
2022/06/03 08:05:18;;;;;;;6.05;3.10;;;33.90;35.20;;;;;;5092642;28;20115;-56
2022/06/03 08:11:18;;;;;;;5.45;2.55;;;33.50;32.30;;;;;;5103259;28;20169;-60
2022/06/03 08:13:39;;;;;;;9.15;3.40;;;33.90;33.30;;;;;;5092878;28;20028;-58
2022/06/03 08:16:10;;;;;;;6.00;3.20;;;33.80;30.20;;;;;;5092694;28;20027;-53
2022/06/03 08:18:40;;;;;;;5.28;2.75;;;33.70;32.50;;;;;;5094035;28;20073;-60
2022/06/03 08:21:43;;;;;;;5.22;2.90;;;33.50;32.40;;;;;;5094338;28;20020;-48
2022/06/03 08:24:15;;;;;;;6.93;2.85;;;32.20;31.40;;;;;;5051200;28;20028;-49
2022/06/03 08:26:44;;;;;;;4.65;2.70;;;31.00;34.60;;;;;;5092524;28;20034;-57
2022/06/03 08:29:13;;;;;;;5.25;2.83;;;29.80;35.80;;;;;;5091889;28;20030;-60
2022/06/03 08:31:39;;;;;;;6.35;2.83;;;28.60;35.70;;;;;;5077807;28;21472;-57
2022/06/03 08:34:11;;;;;;;4.75;2.60;;;27.50;38.40;;;;;;5095986;28;20099;-56
2022/06/03 08:36:40;;;;;;;7.32;3.10;;;27.60;43.70;;;;;;5094063;28;20028;-57
2022/06/03 08:39:28;;;;;;;4.18;2.60;;;27.60;43.90;;;;;;5092636;28;20055;-52
2022/06/03 08:42:20;;;;;;;6.57;3.10;;;27.40;41.10;;;;;;5095616;28;20020;-57
2022/06/03 08:44:46;;;;;;;4.55;2.60;;;27.20;43.80;;;;;;5093919;28;20028;-62
2022/06/03 08:47:19;;;;;;;5.50;2.40;;;27.80;41.50;;;;;;5091873;28;20118;-61
2022/06/03 08:49:56;;;;;;;3.83;2.47;;;28.40;39.70;;;;;;5092691;28;20035;-62
2022/06/03 08:52:30;;;;;;;5.95;2.88;;;29.30;38.70;;;;;;5096211;28;20111;-57
2022/06/03 08:55:01;;;;;;;4.60;2.50;;;29.70;36.40;;;;;;5096707;28;20058;-59
2022/06/03 08:57:36;;;;;;;6.72;2.30;;;30.20;36.40;;;;;;5084963;28;20168;-54
2022/06/03 09:00:18;;;;;;;3.97;2.60;;;30.60;38.80;;;;;;5100588;28;20110;-56
2022/06/03 09:03:21;;;;;;;5.97;2.22;;;30.40;33.10;;;;;;5112032;28;20020;-57
2022/06/03 09:06:31;;;;;;;6.15;2.13;;;30.80;33.90;;;;;;5002604;28;20033;-59
2022/06/03 09:09:11;;;;;;;5.22;2.40;;;31.30;35.10;;;;;;5008597;28;20653;-56
2022/06/03 09:11:59;;;;;;;2.70;1.92;;;30.00;29.80;;;;;;5099426;28;20024;-54
2022/06/03 09:14:27;;;;;;;5.10;2.20;;;29.80;30.90;;;;;;5096564;28;20024;-53
2022/06/03 09:16:58;;;;;;;5.95;2.33;;;29.30;32.30;;;;;;5096382;28;20295;-54
2022/06/03 09:19:26;;;;;;;3.83;2.00;;;29.50;35.00;;;;;;5093025;28;20039;-60
2022/06/03 09:21:54;;;;;;;4.72;1.98;;;30.30;33.40;;;;;;5095455;28;20076;-52
2022/06/03 09:24:24;;;;;;;5.13;1.88;;;30.60;30.90;;;;;;5106448;28;20027;-55
2022/06/03 09:26:53;;;;;;;6.22;1.80;;;30.10;29.50;;;;;;5104056;28;20038;-48
2022/06/03 09:29:20;;;;;;;6.03;1.92;;;30.20;33.40;;;;;;5090834;28;20910;-60
2022/06/03 09:31:56;;;;;;;5.90;1.90;;;30.80;33.50;;;;;;5076904;28;20031;-54
2022/06/03 09:34:45;;;;;;;4.15;1.83;;;30.10;31.60;;;;;;5098544;28;20028;-61
2022/06/03 09:37:19;;;;;;;4.03;2.30;;;30.00;35.60;;;;;;5095806;28;20040;-56
2022/06/03 09:39:48;;;;;;;4.88;2.10;;;30.00;30.60;;;;;;5099184;28;20037;-61
2022/06/03 09:42:17;;;;;;;4.22;1.90;;;30.10;34.20;;;;;;5095694;28;20019;-54
2022/06/03 09:44:46;;;;;;;3.03;1.73;;;30.40;31.70;;;;;;5098953;28;20032;-53
2022/06/03 09:47:16;;;;;;;4.90;2.00;;;29.70;31.30;;;;;;5096179;28;20115;-48
2022/06/03 09:49:46;;;;;;;3.35;1.67;;;29.90;34.40;;;;;;5097874;28;20027;-46
2022/06/03 09:52:16;;;;;;;5.18;1.55;;;30.10;35.50;;;;;;5097948;28;20053;-42
2022/06/03 09:54:43;;;;;;;4.82;1.45;;;30.20;28.60;;;;;;5091519;28;20085;-49
2022/06/03 09:57:16;;;;;;;3.50;1.67;;;30.10;34.10;;;;;;5075496;28;20032;-52
2022/06/03 09:59:59;;;;;;;2.47;1.90;;;30.20;32.80;;;;;;5110730;28;20028;-47
2022/06/03 10:02:26;;;;;;;5.82;2.08;;;29.40;32.30;;;;;;5103718;28;20073;-46
2022/06/03 10:04:53;;;;;;;4.05;2.17;;;29.10;34.00;;;;;;5110624;28;20487;-42
2022/06/03 10:07:19;;;;;;;4.00;2.13;;;29.10;32.00;;;;;;5106752;28;20536;-62
2022/06/03 10:12:52;;;;;;;6.57;1.70;;;29.80;34.70;;;;;;5095901;28;20097;-47
2022/06/03 10:18:33;;;;;;;4.43;2.13;;;29.70;31.40;;;;;;5093427;28;20012;-41
2022/06/03 10:21:18;;;;;;;4.70;1.88;;;29.10;33.50;;;;;;5077300;28;20499;-42
2022/06/03 10:23:53;;;;;;;3.80;1.80;;;29.10;34.50;;;;;;5096044;28;20043;-42
2022/06/03 10:26:35;;;;;;;3.53;1.90;;;29.00;40.00;;;;;;5095535;28;20028;-56
2022/06/03 10:29:18;;;;;;;5.10;1.80;;;29.60;34.90;;;;;;5099450;28;20031;-54
2022/06/03 10:31:49;;;;;;;3.28;1.63;;;29.60;30.90;;;;;;5103113;28;20151;-56
2022/06/03 10:34:21;;;;;;;3.50;2.03;;;29.50;31.00;;;;;;5101492;28;20059;-57
2022/06/03 10:36:49;;;;;;;6.50;2.30;;;28.80;31.10;;;;;;5102876;28;20068;-57
2022/06/03 10:39:18;;;;;;;3.28;2.00;;;29.30;36.10;;;;;;5082840;28;20020;-48
2022/06/03 10:41:50;;;;;;;3.15;1.85;;;29.50;36.00;;;;;;5098075;28;20028;-47
2022/06/03 10:44:23;;;;;;;4.72;2.30;;;29.40;36.20;;;;;;5095494;28;20175;-60
2022/06/03 10:47:04;;;;;;;4.20;1.73;;;29.30;33.10;;;;;;5099734;28;20081;-50
2022/06/03 10:49:35;;;;;;;4.65;1.90;;;29.00;35.50;;;;;;5108263;28;20407;-55
2022/06/03 11:03:26;;;;;;;7.30;2.08;;;29.70;33.30;;;;;;5099425;28;20031;-55
2022/06/03 11:05:51;;;;;;;5.25;1.92;;;30.10;36.30;;;;;;5085903;28;20032;-56
2022/06/03 11:08:19;;;;;;;3.75;1.50;;;29.70;34.90;;;;;;5098772;28;20024;-59
2022/06/03 11:10:55;;;;;;;4.30;2.10;;;30.10;36.50;;;;;;5099378;28;21536;-51
2022/06/03 11:13:38;;;;;;;4.15;1.75;;;30.00;31.80;;;;;;5100831;28;20169;-59
2022/06/03 11:16:21;;;;;;;4.47;1.88;;;29.40;33.40;;;;;;5093816;28;20031;-54
2022/06/03 11:18:47;;;;;;;4.85;2.03;;;28.60;33.10;;;;;;5101957;28;20130;-47
2022/06/03 11:21:26;;;;;;;3.78;1.90;;;28.90;33.40;;;;;;5093589;28;20031;-53
2022/06/03 11:23:55;;;;;;;3.75;1.90;;;29.10;32.20;;;;;;5093799;28;20280;-41
2022/06/03 11:26:23;;;;;;;;;;;29.20;35.60;;;;;;5093982;28;20419;-42
2022/06/03 11:28:54;;;;;;;3.67;1.98;;;29.10;33.40;;;;;;5093892;28;19910;-41
2022/06/03 11:31:42;;;;;;;5.18;2.00;;;29.40;38.10;;;;;;5093386;28;20460;-59
2022/06/03 11:34:47;;;;;;;3.20;1.83;;;29.30;37.30;;;;;;5101135;28;20024;-43
2022/06/03 11:37:24;;;;;;;4.55;1.90;;;29.20;33.00;;;;;;5092617;28;20044;-56
2022/06/03 11:40:04;;;;;;;4.72;2.28;;;29.10;35.20;;;;;;5091587;28;20077;-47
2022/06/03 11:42:38;;;;;;;6.30;2.80;;;29.40;34.80;;;;;;5093902;28;20385;-60
2022/06/03 11:45:20;;;;;;;6.30;2.28;;;28.20;35.30;;;;;;5092248;28;20473;-61
2022/06/03 11:48:12;;;;;;;4.30;2.75;;;28.60;38.90;;;;;;5092479;28;20032;-57
2022/06/03 11:50:38;;;;;;;3.53;2.40;;;28.40;34.80;;;;;;5095370;28;20037;-61
2022/06/03 11:53:04;;;;;;;5.57;2.80;;;27.80;38.00;;;;;;5076460;28;20032;-57
2022/06/03 11:55:32;;;;;;;5.40;2.75;;;28.10;42.00;;;;;;5096271;28;20536;-49
2022/06/03 11:58:05;;;;;;;5.57;3.77;;;27.70;38.10;;;;;;5100446;28;20384;-61
2022/06/03 12:00:37;;;;;;;8.52;3.55;;;27.30;38.90;;;;;;5094421;28;20166;-59
2022/06/03 12:03:08;;;;;;;5.68;2.70;;;27.40;41.50;;;;;;5096959;28;20376;-56
2022/06/03 12:05:43;;;;;;;7.75;3.60;;;27.70;41.10;;;;;;5102589;28;20053;-58
2022/06/03 12:08:26;;;;;;;5.05;2.80;;;28.00;39.70;;;;;;5098868;28;20024;-57
2022/06/03 12:13:14;;;;;;;5.25;2.83;;;28.30;40.10;;;;;;5091632;28;20031;-58
2022/06/03 12:14:26;;;;;;;6.90;3.30;;;28.10;39.70;;;;;;5092606;28;20035;-58
2022/06/03 12:17:10;;;;;;;7.20;3.50;;;27.60;38.70;;;;;;5091516;28;20036;-60
2022/06/03 12:19:46;;;;;;;6.35;3.30;;;27.20;38.30;;;;;;5111023;28;20120;-53
2022/06/03 12:22:31;;;;;;;6.65;2.90;;;26.80;39.30;;;;;;5096706;28;20016;-47
2022/06/03 12:24:59;;;;;;;5.38;3.38;;;26.60;41.40;;;;;;5092836;28;20036;-50
2022/06/03 12:27:35;;;;;;;4.40;2.78;;;26.10;39.40;;;;;;5097133;28;20012;-50
2022/06/03 12:30:33;;;;;;;5.97;2.72;;;26.20;40.60;;;;;;5093169;28;20020;-58
2022/06/03 12:33:20;;;;;;;6.47;3.30;;;26.40;42.00;;;;;;5093353;28;20034;-54
2022/06/03 12:35:56;;;;;;;3.83;2.78;;;26.60;41.20;;;;;;5089712;28;20268;-52
2022/06/03 12:38:22;;;;;;;5.30;2.88;;;26.70;42.10;;;;;;5097115;28;20036;-60
2022/06/03 12:40:58;;;;;;;5.00;2.97;;;26.90;40.60;;;;;;5091797;28;20039;-55
2022/06/03 12:43:30;;;;;;;4.43;3.08;;;26.90;38.70;;;;;;5092188;28;20032;-56
2022/06/03 12:46:02;;;;;;;5.65;3.28;;;27.00;38.90;;;;;;5091716;28;20481;-59
2022/06/03 12:48:48;;;;;;;6.70;3.30;;;27.30;40.70;;;;;;5092054;28;20130;-57
2022/06/03 12:51:24;;;;;;;4.53;3.20;;;26.80;38.00;;;;;;5091961;28;20016;-57
2022/06/03 12:53:55;;;;;;;5.85;3.00;;;26.30;39.70;;;;;;5092882;28;20098;-54
2022/06/03 12:56:44;;;;;;;4.15;2.92;;;26.20;42.10;;;;;;5091562;28;20070;-58
2022/06/03 12:59:52;;;;;;;5.38;3.35;;;25.70;40.60;;;;;;5105003;28;20031;-45
2022/06/03 13:02:23;;;;;;;6.20;2.93;;;25.50;42.00;;;;;;5009421;28;20057;-60
2022/06/03 13:04:55;;;;;;;6.57;3.13;;;25.40;43.40;;;;;;5090170;28;20118;-52
2022/06/03 13:07:27;;;;;;;3.85;2.60;;;25.40;42.90;;;;;;5090827;28;20468;-57
2022/06/03 13:10:03;;;;;;;4.70;3.30;;;25.40;43.90;;;;;;5088992;28;20553;-56
2022/06/03 13:12:46;;;;;;;5.22;3.25;;;25.40;42.00;;;;;;5097173;28;20069;-62
2022/06/03 13:15:20;;;;;;;7.13;3.15;;;25.50;42.60;;;;;;5110229;28;20106;-58
2022/06/03 13:18:12;;;;;;;6.35;3.10;;;25.30;41.70;;;;;;5109812;28;20062;-56
2022/06/03 13:20:43;;;;;;;6.57;3.33;;;24.90;43.00;;;;;;5109976;28;20028;-44
2022/06/03 13:23:30;;;;;;;9.25;3.53;;;24.60;42.60;;;;;;5095933;28;20467;-58
2022/06/03 13:26:22;;;;;;;4.85;3.25;;;24.60;44.40;;;;;;5109521;28;20537;-59
2022/06/03 13:29:04;;;;;;;8.00;3.08;;;24.70;42.90;;;;;;5103625;28;20480;-58
2022/06/03 13:31:45;;;;;;;6.68;3.35;;;24.80;43.80;;;;;;5109693;28;20080;-61
2022/06/03 13:34:11;;;;;;;8.18;3.38;;;24.40;43.10;;;;;;5111695;28;20396;-54
2022/06/03 13:36:49;;;;;;;6.30;3.10;;;24.40;42.70;;;;;;5111605;28;20023;-56
2022/06/03 13:39:55;;;;;;;6.10;2.83;;;24.50;43.50;;;;;;5111715;28;20050;-58
2022/06/03 13:45:33;;;;;;;5.28;2.65;;;24.20;42.20;;;;;;5111310;28;20077;-44
2022/06/03 13:47:59;;;;;;;6.28;2.83;;;24.20;42.50;;;;;;5089075;28;20396;-54
2022/06/03 13:50:28;;;;;;;8.13;2.92;;;24.30;44.30;;;;;;5093077;28;20476;-58
2022/06/03 13:53:00;;;;;;;5.18;2.70;;;24.10;42.00;;;;;;5111330;28;20464;-54
2022/06/03 13:55:37;;;;;;;5.85;2.85;;;24.10;41.70;;;;;;5111285;28;20051;-59
2022/06/03 13:58:19;;;;;;;7.53;2.80;;;24.20;43.00;;;;;;5101009;28;20035;-58
2022/06/03 14:00:54;;;;;;;5.82;2.92;;;23.90;41.00;;;;;;5111192;28;20028;-58
2022/06/03 14:03:33;;;;;;;4.80;2.67;;;23.60;41.90;;;;;;5111180;28;20379;-57
2022/06/03 14:06:15;;;;;;;7.00;3.03;;;23.90;43.80;;;;;;5110965;28;20422;-55
2022/06/03 14:08:59;;;;;;;6.97;2.90;;;24.00;44.00;;;;;;5111286;28;20106;-45
2022/06/03 14:11:30;;;;;;;5.25;2.88;;;24.10;42.80;;;;;;5111112;28;20039;-58
2022/06/03 14:14:06;;;;;;;4.30;2.60;;;24.20;42.60;;;;;;5111216;28;20103;-59
2022/06/03 14:16:38;;;;;;;5.95;2.90;;;24.20;43.60;;;;;;5111238;28;20023;-61
2022/06/03 14:19:10;;;;;;;5.65;3.10;;;24.10;44.00;;;;;;5111140;28;20031;-58
2022/06/03 14:21:38;;;;;;;5.72;2.33;;;23.90;43.10;;;;;;5111772;28;20027;-61
2022/06/03 14:24:48;;;;;;;6.33;3.17;;;24.00;44.60;;;;;;5115280;28;20055;-58
2022/06/03 14:27:27;;;;;;;4.93;2.60;;;23.90;42.80;;;;;;5109539;28;20347;-59
2022/06/03 14:30:15;;;;;;;;;;;23.80;44.80;;;;;;5093259;28;20028;-55
2022/06/03 14:32:50;;;;;;;6.18;2.80;;;23.80;44.30;;;;;;5115295;28;20330;-59